sensor_id;sensor_type;location;lat;lon;timestamp;P1;durP1;ratioP1;P2;durP2;ratioP2
6031;SDS011;3044;43.232;27.972;2022-12-18T00:01:13;5.73;;;2.57;;
6031;SDS011;3044;43.232;27.972;2022-12-18T00:03:41;2.87;;;2.67;;
6031;SDS011;3044;43.232;27.972;2022-12-18T00:06:09;4.27;;;2.90;;
6031;SDS011;3044;43.232;27.972;2022-12-18T00:08:36;2.90;;;2.70;;
6031;SDS011;3044;43.232;27.972;2022-12-18T00:11:04;2.70;;;2.50;;
6031;SDS011;3044;43.232;27.972;2022-12-18T00:13:32;3.60;;;3.10;;
6031;SDS011;3044;43.232;27.972;2022-12-18T00:16:02;2.83;;;2.63;;
6031;SDS011;3044;43.232;27.972;2022-12-18T00:18:30;3.70;;;3.27;;
6031;SDS011;3044;43.232;27.972;2022-12-18T00:20:58;3.87;;;3.57;;
6031;SDS011;3044;43.232;27.972;2022-12-18T00:23:26;5.47;;;3.60;;
6031;SDS011;3044;43.232;27.972;2022-12-18T00:25:53;3.03;;;2.83;;
6031;SDS011;3044;43.232;27.972;2022-12-18T00:28:20;3.40;;;2.97;;
6031;SDS011;3044;43.232;27.972;2022-12-18T00:30:47;3.20;;;3.00;;
6031;SDS011;3044;43.232;27.972;2022-12-18T00:33:18;14.43;;;2.97;;
6031;SDS011;3044;43.232;27.972;2022-12-18T00:35:45;3.50;;;3.20;;
6031;SDS011;3044;43.232;27.972;2022-12-18T00:38:12;4.03;;;2.93;;
6031;SDS011;3044;43.232;27.972;2022-12-18T00:40:39;5.40;;;4.03;;
6031;SDS011;3044;43.232;27.972;2022-12-18T00:43:06;3.87;;;3.47;;
6031;SDS011;3044;43.232;27.972;2022-12-18T00:45:32;3.20;;;2.90;;
6031;SDS011;3044;43.232;27.972;2022-12-18T00:47:59;7.83;;;4.10;;
6031;SDS011;3044;43.232;27.972;2022-12-18T00:50:28;6.90;;;3.70;;
6031;SDS011;3044;43.232;27.972;2022-12-18T00:52:55;10.40;;;2.77;;
6031;SDS011;3044;43.232;27.972;2022-12-18T00:55:22;3.30;;;3.00;;
6031;SDS011;3044;43.232;27.972;2022-12-18T00:57:50;3.10;;;2.80;;
6031;SDS011;3044;43.232;27.972;2022-12-18T01:00:18;3.00;;;2.73;;
6031;SDS011;3044;43.232;27.972;2022-12-18T01:02:45;4.77;;;2.90;;
6031;SDS011;3044;43.232;27.972;2022-12-18T01:05:12;4.07;;;3.77;;
6031;SDS011;3044;43.232;27.972;2022-12-18T01:07:41;3.67;;;3.20;;
6031;SDS011;3044;43.232;27.972;2022-12-18T01:10:09;4.40;;;3.83;;
6031;SDS011;3044;43.232;27.972;2022-12-18T01:12:39;3.50;;;3.20;;
6031;SDS011;3044;43.232;27.972;2022-12-18T01:15:07;3.20;;;3.00;;
6031;SDS011;3044;43.232;27.972;2022-12-18T01:17:36;2.70;;;2.50;;
6031;SDS011;3044;43.232;27.972;2022-12-18T01:20:03;4.77;;;3.20;;
6031;SDS011;3044;43.232;27.972;2022-12-18T01:22:31;4.43;;;3.17;;
6031;SDS011;3044;43.232;27.972;2022-12-18T01:25:00;5.10;;;4.20;;
6031;SDS011;3044;43.232;27.972;2022-12-18T01:27:27;2.80;;;2.60;;
6031;SDS011;3044;43.232;27.972;2022-12-18T01:29:54;3.17;;;2.87;;
6031;SDS011;3044;43.232;27.972;2022-12-18T01:32:21;3.67;;;3.37;;
6031;SDS011;3044;43.232;27.972;2022-12-18T01:34:49;4.33;;;2.83;;
6031;SDS011;3044;43.232;27.972;2022-12-18T01:37:16;3.43;;;3.20;;
6031;SDS011;3044;43.232;27.972;2022-12-18T01:39:43;3.33;;;2.93;;
6031;SDS011;3044;43.232;27.972;2022-12-18T01:42:12;3.60;;;3.30;;
6031;SDS011;3044;43.232;27.972;2022-12-18T01:47:33;2.70;;;2.50;;
6031;SDS011;3044;43.232;27.972;2022-12-18T01:50:04;3.53;;;3.23;;
6031;SDS011;3044;43.232;27.972;2022-12-18T01:52:35;4.23;;;2.60;;
6031;SDS011;3044;43.232;27.972;2022-12-18T01:55:04;3.70;;;3.40;;
6031;SDS011;3044;43.232;27.972;2022-12-18T01:57:34;3.70;;;3.20;;
6031;SDS011;3044;43.232;27.972;2022-12-18T02:00:04;3.33;;;3.03;;
6031;SDS011;3044;43.232;27.972;2022-12-18T02:02:32;3.53;;;2.93;;
6031;SDS011;3044;43.232;27.972;2022-12-18T02:05:00;3.53;;;3.23;;
6031;SDS011;3044;43.232;27.972;2022-12-18T02:07:31;2.80;;;2.60;;
6031;SDS011;3044;43.232;27.972;2022-12-18T02:10:10;3.10;;;2.90;;
6031;SDS011;3044;43.232;27.972;2022-12-18T02:12:48;3.30;;;3.10;;
6031;SDS011;3044;43.232;27.972;2022-12-18T02:15:22;3.50;;;3.20;;
6031;SDS011;3044;43.232;27.972;2022-12-18T02:17:56;3.00;;;2.70;;
6031;SDS011;3044;43.232;27.972;2022-12-18T02:20:31;3.00;;;2.80;;
6031;SDS011;3044;43.232;27.972;2022-12-18T02:23:10;5.10;;;2.93;;
6031;SDS011;3044;43.232;27.972;2022-12-18T02:26:08;3.00;;;2.80;;
6031;SDS011;3044;43.232;27.972;2022-12-18T02:28:45;3.30;;;3.00;;
6031;SDS011;3044;43.232;27.972;2022-12-18T02:31:16;3.17;;;2.90;;
6031;SDS011;3044;43.232;27.972;2022-12-18T02:33:48;4.20;;;3.40;;
6031;SDS011;3044;43.232;27.972;2022-12-18T02:36:17;3.93;;;2.20;;
6031;SDS011;3044;43.232;27.972;2022-12-18T02:38:47;3.30;;;3.10;;
6031;SDS011;3044;43.232;27.972;2022-12-18T02:41:16;8.90;;;2.30;;
6031;SDS011;3044;43.232;27.972;2022-12-18T02:43:47;2.77;;;2.57;;
6031;SDS011;3044;43.232;27.972;2022-12-18T02:46:27;3.13;;;2.83;;
6031;SDS011;3044;43.232;27.972;2022-12-18T02:48:59;3.40;;;3.20;;
6031;SDS011;3044;43.232;27.972;2022-12-18T02:51:34;4.50;;;2.67;;
6031;SDS011;3044;43.232;27.972;2022-12-18T02:54:09;2.77;;;2.57;;
6031;SDS011;3044;43.232;27.972;2022-12-18T02:56:46;3.17;;;2.97;;
6031;SDS011;3044;43.232;27.972;2022-12-18T02:59:19;2.30;;;2.20;;
6031;SDS011;3044;43.232;27.972;2022-12-18T03:01:54;2.80;;;2.60;;
6031;SDS011;3044;43.232;27.972;2022-12-18T03:04:25;7.03;;;2.60;;
6031;SDS011;3044;43.232;27.972;2022-12-18T03:06:55;2.50;;;2.30;;
6031;SDS011;3044;43.232;27.972;2022-12-18T03:09:27;2.80;;;2.60;;
6031;SDS011;3044;43.232;27.972;2022-12-18T03:12:00;4.30;;;2.70;;
6031;SDS011;3044;43.232;27.972;2022-12-18T03:14:52;2.40;;;2.30;;
6031;SDS011;3044;43.232;27.972;2022-12-18T03:17:25;3.67;;;3.37;;
6031;SDS011;3044;43.232;27.972;2022-12-18T03:19:56;2.90;;;2.70;;
6031;SDS011;3044;43.232;27.972;2022-12-18T03:22:29;2.43;;;2.33;;
6031;SDS011;3044;43.232;27.972;2022-12-18T03:24:58;2.57;;;2.37;;
6031;SDS011;3044;43.232;27.972;2022-12-18T03:27:30;3.10;;;2.80;;
6031;SDS011;3044;43.232;27.972;2022-12-18T03:30:00;3.07;;;2.87;;
6031;SDS011;3044;43.232;27.972;2022-12-18T03:32:33;2.67;;;2.53;;
6031;SDS011;3044;43.232;27.972;2022-12-18T03:35:07;5.00;;;3.97;;
6031;SDS011;3044;43.232;27.972;2022-12-18T03:37:37;3.00;;;2.80;;
6031;SDS011;3044;43.232;27.972;2022-12-18T03:40:05;4.00;;;3.67;;
6031;SDS011;3044;43.232;27.972;2022-12-18T03:42:37;3.03;;;2.80;;
6031;SDS011;3044;43.232;27.972;2022-12-18T03:45:11;4.63;;;4.23;;
6031;SDS011;3044;43.232;27.972;2022-12-18T03:47:47;3.13;;;2.93;;
6031;SDS011;3044;43.232;27.972;2022-12-18T03:50:25;3.20;;;3.00;;
6031;SDS011;3044;43.232;27.972;2022-12-18T03:53:00;3.50;;;3.30;;
6031;SDS011;3044;43.232;27.972;2022-12-18T03:55:35;6.63;;;5.93;;
6031;SDS011;3044;43.232;27.972;2022-12-18T03:58:04;5.87;;;5.27;;
6031;SDS011;3044;43.232;27.972;2022-12-18T04:00:34;3.23;;;3.03;;
6031;SDS011;3044;43.232;27.972;2022-12-18T04:03:01;4.00;;;3.60;;
6031;SDS011;3044;43.232;27.972;2022-12-18T04:05:31;4.30;;;3.17;;
6031;SDS011;3044;43.232;27.972;2022-12-18T04:08:00;4.30;;;3.93;;
6031;SDS011;3044;43.232;27.972;2022-12-18T04:10:29;3.90;;;3.60;;
6031;SDS011;3044;43.232;27.972;2022-12-18T04:12:57;4.30;;;3.90;;
6031;SDS011;3044;43.232;27.972;2022-12-18T04:15:26;6.73;;;3.57;;
6031;SDS011;3044;43.232;27.972;2022-12-18T04:17:53;4.47;;;3.87;;
6031;SDS011;3044;43.232;27.972;2022-12-18T04:20:20;5.20;;;4.30;;
6031;SDS011;3044;43.232;27.972;2022-12-18T04:22:47;4.60;;;4.17;;
6031;SDS011;3044;43.232;27.972;2022-12-18T04:25:14;5.67;;;5.07;;
6031;SDS011;3044;43.232;27.972;2022-12-18T04:27:41;4.37;;;4.07;;
6031;SDS011;3044;43.232;27.972;2022-12-18T04:30:09;4.93;;;4.43;;
6031;SDS011;3044;43.232;27.972;2022-12-18T04:32:38;5.10;;;4.60;;
6031;SDS011;3044;43.232;27.972;2022-12-18T04:35:05;4.50;;;4.10;;
6031;SDS011;3044;43.232;27.972;2022-12-18T04:37:35;4.40;;;4.00;;
6031;SDS011;3044;43.232;27.972;2022-12-18T04:40:03;5.00;;;4.60;;
6031;SDS011;3044;43.232;27.972;2022-12-18T04:42:30;7.90;;;4.50;;
6031;SDS011;3044;43.232;27.972;2022-12-18T04:44:57;6.17;;;5.57;;
6031;SDS011;3044;43.232;27.972;2022-12-18T04:47:25;6.27;;;5.47;;
6031;SDS011;3044;43.232;27.972;2022-12-18T04:49:53;7.50;;;5.07;;
6031;SDS011;3044;43.232;27.972;2022-12-18T04:52:20;11.50;;;5.50;;
6031;SDS011;3044;43.232;27.972;2022-12-18T04:54:47;8.20;;;6.63;;
6031;SDS011;3044;43.232;27.972;2022-12-18T04:57:15;7.20;;;6.40;;
6031;SDS011;3044;43.232;27.972;2022-12-18T04:59:43;8.53;;;6.50;;
6031;SDS011;3044;43.232;27.972;2022-12-18T05:02:10;8.77;;;6.57;;
6031;SDS011;3044;43.232;27.972;2022-12-18T05:04:37;6.90;;;6.20;;
6031;SDS011;3044;43.232;27.972;2022-12-18T05:07:06;9.20;;;5.83;;
6031;SDS011;3044;43.232;27.972;2022-12-18T05:09:34;9.83;;;6.50;;
6031;SDS011;3044;43.232;27.972;2022-12-18T05:12:01;9.83;;;6.07;;
6031;SDS011;3044;43.232;27.972;2022-12-18T05:14:28;8.07;;;6.80;;
6031;SDS011;3044;43.232;27.972;2022-12-18T05:16:55;9.40;;;7.20;;
6031;SDS011;3044;43.232;27.972;2022-12-18T05:19:22;8.60;;;7.30;;
6031;SDS011;3044;43.232;27.972;2022-12-18T05:21:49;10.60;;;8.10;;
6031;SDS011;3044;43.232;27.972;2022-12-18T05:24:18;10.20;;;8.00;;
6031;SDS011;3044;43.232;27.972;2022-12-18T05:26:45;11.00;;;7.97;;
6031;SDS011;3044;43.232;27.972;2022-12-18T05:29:12;10.37;;;8.47;;
6031;SDS011;3044;43.232;27.972;2022-12-18T05:31:39;14.60;;;10.63;;
6031;SDS011;3044;43.232;27.972;2022-12-18T05:34:06;13.47;;;10.03;;
6031;SDS011;3044;43.232;27.972;2022-12-18T05:36:33;14.07;;;10.03;;
6031;SDS011;3044;43.232;27.972;2022-12-18T05:39:01;15.50;;;11.00;;
6031;SDS011;3044;43.232;27.972;2022-12-18T05:41:29;16.40;;;10.60;;
6031;SDS011;3044;43.232;27.972;2022-12-18T05:43:56;18.17;;;11.47;;
6031;SDS011;3044;43.232;27.972;2022-12-18T05:46:25;15.67;;;10.90;;
6031;SDS011;3044;43.232;27.972;2022-12-18T05:48:52;15.93;;;11.70;;
6031;SDS011;3044;43.232;27.972;2022-12-18T05:51:20;17.57;;;11.50;;
6031;SDS011;3044;43.232;27.972;2022-12-18T05:53:48;16.30;;;10.70;;
6031;SDS011;3044;43.232;27.972;2022-12-18T05:56:16;17.60;;;12.23;;
6031;SDS011;3044;43.232;27.972;2022-12-18T05:58:46;17.83;;;11.70;;
6031;SDS011;3044;43.232;27.972;2022-12-18T06:01:14;16.87;;;11.40;;
6031;SDS011;3044;43.232;27.972;2022-12-18T06:03:43;21.03;;;13.27;;
6031;SDS011;3044;43.232;27.972;2022-12-18T06:06:14;19.70;;;12.97;;
6031;SDS011;3044;43.232;27.972;2022-12-18T06:08:43;23.40;;;14.27;;
6031;SDS011;3044;43.232;27.972;2022-12-18T06:11:10;18.73;;;13.57;;
6031;SDS011;3044;43.232;27.972;2022-12-18T06:13:38;20.90;;;14.73;;
6031;SDS011;3044;43.232;27.972;2022-12-18T06:16:08;24.10;;;14.17;;
6031;SDS011;3044;43.232;27.972;2022-12-18T06:18:35;23.53;;;15.00;;
6031;SDS011;3044;43.232;27.972;2022-12-18T06:21:02;25.90;;;15.50;;
6031;SDS011;3044;43.232;27.972;2022-12-18T06:23:30;22.80;;;14.53;;
6031;SDS011;3044;43.232;27.972;2022-12-18T06:25:57;23.37;;;15.20;;
6031;SDS011;3044;43.232;27.972;2022-12-18T06:28:24;22.60;;;14.30;;
6031;SDS011;3044;43.232;27.972;2022-12-18T06:30:51;27.73;;;15.10;;
6031;SDS011;3044;43.232;27.972;2022-12-18T06:33:19;23.50;;;15.60;;
6031;SDS011;3044;43.232;27.972;2022-12-18T06:35:47;28.90;;;15.40;;
6031;SDS011;3044;43.232;27.972;2022-12-18T06:38:14;23.20;;;15.70;;
6031;SDS011;3044;43.232;27.972;2022-12-18T06:40:41;26.50;;;16.93;;
6031;SDS011;3044;43.232;27.972;2022-12-18T06:43:08;26.40;;;15.90;;
6031;SDS011;3044;43.232;27.972;2022-12-18T06:45:35;25.97;;;16.47;;
6031;SDS011;3044;43.232;27.972;2022-12-18T06:48:02;26.80;;;16.60;;
6031;SDS011;3044;43.232;27.972;2022-12-18T06:50:31;31.07;;;18.67;;
6031;SDS011;3044;43.232;27.972;2022-12-18T06:52:59;27.40;;;16.50;;
6031;SDS011;3044;43.232;27.972;2022-12-18T06:55:26;30.10;;;17.93;;
6031;SDS011;3044;43.232;27.972;2022-12-18T06:57:53;25.73;;;15.87;;
6031;SDS011;3044;43.232;27.972;2022-12-18T07:00:20;27.50;;;17.37;;
6031;SDS011;3044;43.232;27.972;2022-12-18T07:02:47;27.07;;;18.03;;
6031;SDS011;3044;43.232;27.972;2022-12-18T07:05:15;35.20;;;18.13;;
6031;SDS011;3044;43.232;27.972;2022-12-18T07:07:43;28.00;;;16.80;;
6031;SDS011;3044;43.232;27.972;2022-12-18T07:10:10;27.50;;;17.43;;
6031;SDS011;3044;43.232;27.972;2022-12-18T07:12:37;35.00;;;19.10;;
6031;SDS011;3044;43.232;27.972;2022-12-18T07:15:05;29.90;;;18.60;;
6031;SDS011;3044;43.232;27.972;2022-12-18T07:17:33;29.03;;;19.50;;
6031;SDS011;3044;43.232;27.972;2022-12-18T07:20:00;30.63;;;18.90;;
6031;SDS011;3044;43.232;27.972;2022-12-18T07:22:28;35.03;;;19.43;;
6031;SDS011;3044;43.232;27.972;2022-12-18T07:24:56;28.93;;;17.83;;
6031;SDS011;3044;43.232;27.972;2022-12-18T07:27:23;32.10;;;19.47;;
6031;SDS011;3044;43.232;27.972;2022-12-18T07:29:51;27.43;;;17.73;;
6031;SDS011;3044;43.232;27.972;2022-12-18T07:32:18;31.93;;;19.80;;
6031;SDS011;3044;43.232;27.972;2022-12-18T07:34:45;29.23;;;18.97;;
6031;SDS011;3044;43.232;27.972;2022-12-18T07:37:12;35.50;;;19.17;;
6031;SDS011;3044;43.232;27.972;2022-12-18T07:39:39;30.00;;;19.70;;
6031;SDS011;3044;43.232;27.972;2022-12-18T07:42:07;30.10;;;18.43;;
6031;SDS011;3044;43.232;27.972;2022-12-18T07:44:52;35.03;;;20.07;;
6031;SDS011;3044;43.232;27.972;2022-12-18T07:47:19;37.27;;;21.23;;
6031;SDS011;3044;43.232;27.972;2022-12-18T07:49:46;33.37;;;18.73;;
6031;SDS011;3044;43.232;27.972;2022-12-18T07:52:13;34.67;;;20.10;;
6031;SDS011;3044;43.232;27.972;2022-12-18T07:54:41;30.77;;;18.40;;
6031;SDS011;3044;43.232;27.972;2022-12-18T07:57:09;34.87;;;19.60;;
6031;SDS011;3044;43.232;27.972;2022-12-18T07:59:36;28.73;;;17.80;;
6031;SDS011;3044;43.232;27.972;2022-12-18T08:02:04;32.73;;;19.50;;
6031;SDS011;3044;43.232;27.972;2022-12-18T08:04:31;32.23;;;19.07;;
6031;SDS011;3044;43.232;27.972;2022-12-18T08:06:58;30.23;;;19.10;;
6031;SDS011;3044;43.232;27.972;2022-12-18T08:09:25;38.13;;;19.97;;
6031;SDS011;3044;43.232;27.972;2022-12-18T08:11:52;31.20;;;19.10;;
6031;SDS011;3044;43.232;27.972;2022-12-18T08:14:21;34.60;;;20.13;;
6031;SDS011;3044;43.232;27.972;2022-12-18T08:16:48;36.20;;;18.63;;
6031;SDS011;3044;43.232;27.972;2022-12-18T08:19:15;35.60;;;20.67;;
6031;SDS011;3044;43.232;27.972;2022-12-18T08:21:42;32.13;;;19.77;;
6031;SDS011;3044;43.232;27.972;2022-12-18T08:24:09;29.40;;;18.80;;
6031;SDS011;3044;43.232;27.972;2022-12-18T08:26:37;31.03;;;19.30;;
6031;SDS011;3044;43.232;27.972;2022-12-18T08:29:04;34.23;;;21.70;;
6031;SDS011;3044;43.232;27.972;2022-12-18T08:31:32;32.50;;;20.50;;
6031;SDS011;3044;43.232;27.972;2022-12-18T08:34:00;37.67;;;22.20;;
6031;SDS011;3044;43.232;27.972;2022-12-18T08:36:27;36.33;;;20.47;;
6031;SDS011;3044;43.232;27.972;2022-12-18T08:38:54;40.10;;;19.97;;
6031;SDS011;3044;43.232;27.972;2022-12-18T08:41:21;33.97;;;19.20;;
6031;SDS011;3044;43.232;27.972;2022-12-18T08:43:49;34.43;;;20.33;;
6031;SDS011;3044;43.232;27.972;2022-12-18T08:46:35;32.00;;;19.00;;
6031;SDS011;3044;43.232;27.972;2022-12-18T08:49:04;28.67;;;18.10;;
6031;SDS011;3044;43.232;27.972;2022-12-18T08:51:31;30.13;;;19.10;;
6031;SDS011;3044;43.232;27.972;2022-12-18T08:53:58;34.00;;;20.33;;
6031;SDS011;3044;43.232;27.972;2022-12-18T08:56:25;31.40;;;19.00;;
6031;SDS011;3044;43.232;27.972;2022-12-18T08:58:53;32.53;;;19.00;;
6031;SDS011;3044;43.232;27.972;2022-12-18T09:01:21;32.87;;;18.60;;
6031;SDS011;3044;43.232;27.972;2022-12-18T09:03:51;32.23;;;19.90;;
6031;SDS011;3044;43.232;27.972;2022-12-18T09:06:19;35.77;;;18.93;;
6031;SDS011;3044;43.232;27.972;2022-12-18T09:08:47;28.87;;;19.20;;
6031;SDS011;3044;43.232;27.972;2022-12-18T09:11:15;39.83;;;20.13;;
6031;SDS011;3044;43.232;27.972;2022-12-18T09:13:46;32.17;;;19.27;;
6031;SDS011;3044;43.232;27.972;2022-12-18T09:16:14;33.00;;;18.57;;
6031;SDS011;3044;43.232;27.972;2022-12-18T09:18:41;34.80;;;21.30;;
6031;SDS011;3044;43.232;27.972;2022-12-18T09:21:11;31.40;;;18.30;;
6031;SDS011;3044;43.232;27.972;2022-12-18T09:23:39;35.23;;;20.87;;
6031;SDS011;3044;43.232;27.972;2022-12-18T09:26:07;35.03;;;20.17;;
6031;SDS011;3044;43.232;27.972;2022-12-18T09:28:34;38.83;;;19.77;;
6031;SDS011;3044;43.232;27.972;2022-12-18T09:31:03;30.40;;;19.03;;
6031;SDS011;3044;43.232;27.972;2022-12-18T09:33:33;34.80;;;19.80;;
6031;SDS011;3044;43.232;27.972;2022-12-18T09:36:01;32.50;;;18.13;;
6031;SDS011;3044;43.232;27.972;2022-12-18T09:38:30;39.80;;;20.77;;
6031;SDS011;3044;43.232;27.972;2022-12-18T09:40:59;36.07;;;20.97;;
6031;SDS011;3044;43.232;27.972;2022-12-18T09:43:30;33.97;;;19.87;;
6031;SDS011;3044;43.232;27.972;2022-12-18T09:46:03;34.13;;;20.70;;
6031;SDS011;3044;43.232;27.972;2022-12-18T09:48:34;31.63;;;19.47;;
6031;SDS011;3044;43.232;27.972;2022-12-18T09:51:05;35.80;;;19.30;;
6031;SDS011;3044;43.232;27.972;2022-12-18T09:53:41;36.07;;;20.53;;
6031;SDS011;3044;43.232;27.972;2022-12-18T09:56:15;33.47;;;19.70;;
6031;SDS011;3044;43.232;27.972;2022-12-18T09:58:49;33.53;;;19.47;;
6031;SDS011;3044;43.232;27.972;2022-12-18T10:01:23;30.47;;;19.07;;
6031;SDS011;3044;43.232;27.972;2022-12-18T10:03:52;30.13;;;19.60;;
6031;SDS011;3044;43.232;27.972;2022-12-18T10:06:20;28.37;;;18.30;;
6031;SDS011;3044;43.232;27.972;2022-12-18T10:08:56;38.83;;;21.83;;
6031;SDS011;3044;43.232;27.972;2022-12-18T10:11:34;36.57;;;21.63;;
6031;SDS011;3044;43.232;27.972;2022-12-18T10:14:08;35.20;;;21.10;;
6031;SDS011;3044;43.232;27.972;2022-12-18T10:16:43;38.50;;;21.87;;
6031;SDS011;3044;43.232;27.972;2022-12-18T10:19:23;44.97;;;22.00;;
6031;SDS011;3044;43.232;27.972;2022-12-18T10:22:01;37.57;;;22.53;;
6031;SDS011;3044;43.232;27.972;2022-12-18T10:24:41;41.10;;;21.70;;
6031;SDS011;3044;43.232;27.972;2022-12-18T10:27:13;34.80;;;20.73;;
6031;SDS011;3044;43.232;27.972;2022-12-18T10:29:42;36.73;;;20.43;;
6031;SDS011;3044;43.232;27.972;2022-12-18T10:32:13;41.87;;;23.73;;
6031;SDS011;3044;43.232;27.972;2022-12-18T10:34:44;46.03;;;23.77;;
6031;SDS011;3044;43.232;27.972;2022-12-18T10:37:14;37.43;;;21.87;;
6031;SDS011;3044;43.232;27.972;2022-12-18T10:39:45;37.50;;;21.27;;
6031;SDS011;3044;43.232;27.972;2022-12-18T10:42:16;37.83;;;22.10;;
6031;SDS011;3044;43.232;27.972;2022-12-18T10:44:45;38.97;;;22.87;;
6031;SDS011;3044;43.232;27.972;2022-12-18T10:47:13;38.00;;;22.00;;
6031;SDS011;3044;43.232;27.972;2022-12-18T10:49:47;37.60;;;22.37;;
6031;SDS011;3044;43.232;27.972;2022-12-18T10:52:17;38.70;;;22.97;;
6031;SDS011;3044;43.232;27.972;2022-12-18T10:54:49;41.00;;;24.03;;
6031;SDS011;3044;43.232;27.972;2022-12-18T11:00:20;42.53;;;23.97;;
6031;SDS011;3044;43.232;27.972;2022-12-18T11:02:49;39.50;;;25.27;;
6031;SDS011;3044;43.232;27.972;2022-12-18T11:05:23;39.73;;;24.70;;
6031;SDS011;3044;43.232;27.972;2022-12-18T11:07:53;44.53;;;24.93;;
6031;SDS011;3044;43.232;27.972;2022-12-18T11:10:25;42.90;;;25.87;;
6031;SDS011;3044;43.232;27.972;2022-12-18T11:12:56;48.80;;;25.23;;
6031;SDS011;3044;43.232;27.972;2022-12-18T11:15:39;45.83;;;24.50;;
6031;SDS011;3044;43.232;27.972;2022-12-18T11:18:14;41.83;;;26.00;;
6031;SDS011;3044;43.232;27.972;2022-12-18T11:20:49;47.13;;;26.07;;
6031;SDS011;3044;43.232;27.972;2022-12-18T11:23:18;41.40;;;25.33;;
6031;SDS011;3044;43.232;27.972;2022-12-18T11:25:52;45.57;;;26.23;;
6031;SDS011;3044;43.232;27.972;2022-12-18T11:28:26;46.90;;;28.57;;
6031;SDS011;3044;43.232;27.972;2022-12-18T11:31:20;44.97;;;26.67;;
6031;SDS011;3044;43.232;27.972;2022-12-18T11:33:52;51.40;;;26.77;;
6031;SDS011;3044;43.232;27.972;2022-12-18T11:36:25;48.63;;;26.97;;
6031;SDS011;3044;43.232;27.972;2022-12-18T11:38:58;48.90;;;27.27;;
6031;SDS011;3044;43.232;27.972;2022-12-18T11:41:30;51.43;;;27.37;;
6031;SDS011;3044;43.232;27.972;2022-12-18T11:44:22;49.80;;;27.07;;
6031;SDS011;3044;43.232;27.972;2022-12-18T11:46:53;41.37;;;25.57;;
6031;SDS011;3044;43.232;27.972;2022-12-18T11:49:26;41.93;;;23.83;;
6031;SDS011;3044;43.232;27.972;2022-12-18T11:52:00;47.40;;;24.73;;
6031;SDS011;3044;43.232;27.972;2022-12-18T11:54:35;46.50;;;25.60;;
6031;SDS011;3044;43.232;27.972;2022-12-18T11:57:06;47.87;;;25.17;;
6031;SDS011;3044;43.232;27.972;2022-12-18T11:59:44;38.60;;;22.80;;
6031;SDS011;3044;43.232;27.972;2022-12-18T12:02:24;39.50;;;21.20;;
6031;SDS011;3044;43.232;27.972;2022-12-18T12:05:06;33.13;;;19.27;;
6031;SDS011;3044;43.232;27.972;2022-12-18T12:07:46;33.07;;;18.90;;
6031;SDS011;3044;43.232;27.972;2022-12-18T12:10:30;35.53;;;19.57;;
6031;SDS011;3044;43.232;27.972;2022-12-18T12:13:21;31.60;;;17.10;;
6031;SDS011;3044;43.232;27.972;2022-12-18T12:16:03;28.83;;;17.40;;
6031;SDS011;3044;43.232;27.972;2022-12-18T12:18:42;30.70;;;18.13;;
6031;SDS011;3044;43.232;27.972;2022-12-18T12:21:19;26.57;;;15.83;;
6031;SDS011;3044;43.232;27.972;2022-12-18T12:23:54;19.00;;;12.57;;
6031;SDS011;3044;43.232;27.972;2022-12-18T12:26:32;18.37;;;11.13;;
6031;SDS011;3044;43.232;27.972;2022-12-18T12:29:09;19.17;;;11.17;;
6031;SDS011;3044;43.232;27.972;2022-12-18T12:31:58;16.10;;;8.70;;
6031;SDS011;3044;43.232;27.972;2022-12-18T12:34:34;9.97;;;8.97;;
6031;SDS011;3044;43.232;27.972;2022-12-18T12:37:17;11.23;;;8.73;;
6031;SDS011;3044;43.232;27.972;2022-12-18T12:39:52;9.43;;;8.40;;
6031;SDS011;3044;43.232;27.972;2022-12-18T12:42:23;10.20;;;7.77;;
6031;SDS011;3044;43.232;27.972;2022-12-18T12:45:18;9.63;;;8.30;;
6031;SDS011;3044;43.232;27.972;2022-12-18T12:47:50;8.10;;;7.30;;
6031;SDS011;3044;43.232;27.972;2022-12-18T12:50:20;10.57;;;8.17;;
6031;SDS011;3044;43.232;27.972;2022-12-18T12:52:50;9.00;;;7.47;;
6031;SDS011;3044;43.232;27.972;2022-12-18T12:55:20;9.50;;;7.40;;
6031;SDS011;3044;43.232;27.972;2022-12-18T12:57:52;9.83;;;7.27;;
6031;SDS011;3044;43.232;27.972;2022-12-18T13:00:29;17.33;;;8.33;;
6031;SDS011;3044;43.232;27.972;2022-12-18T13:03:06;7.83;;;6.67;;
6031;SDS011;3044;43.232;27.972;2022-12-18T13:05:41;9.83;;;7.90;;
6031;SDS011;3044;43.232;27.972;2022-12-18T13:08:22;12.10;;;7.80;;
6031;SDS011;3044;43.232;27.972;2022-12-18T13:10:51;12.73;;;8.30;;
6031;SDS011;3044;43.232;27.972;2022-12-18T13:16:24;15.80;;;10.40;;
6031;SDS011;3044;43.232;27.972;2022-12-18T13:18:53;12.27;;;9.10;;
6031;SDS011;3044;43.232;27.972;2022-12-18T13:21:23;12.57;;;9.63;;
6031;SDS011;3044;43.232;27.972;2022-12-18T13:23:54;13.23;;;8.90;;
6031;SDS011;3044;43.232;27.972;2022-12-18T13:26:30;14.20;;;9.07;;
6031;SDS011;3044;43.232;27.972;2022-12-18T13:28:59;16.07;;;10.50;;
6031;SDS011;3044;43.232;27.972;2022-12-18T13:34:27;13.23;;;8.93;;
6031;SDS011;3044;43.232;27.972;2022-12-18T13:36:56;14.63;;;10.63;;
6031;SDS011;3044;43.232;27.972;2022-12-18T13:39:44;15.00;;;10.30;;
6031;SDS011;3044;43.232;27.972;2022-12-18T13:45:43;17.00;;;11.37;;
6031;SDS011;3044;43.232;27.972;2022-12-18T13:48:19;18.50;;;11.33;;
6031;SDS011;3044;43.232;27.972;2022-12-18T13:50:49;17.03;;;10.70;;
6031;SDS011;3044;43.232;27.972;2022-12-18T13:53:21;11.07;;;9.03;;
6031;SDS011;3044;43.232;27.972;2022-12-18T13:55:52;13.53;;;9.00;;
6031;SDS011;3044;43.232;27.972;2022-12-18T13:58:20;13.57;;;9.23;;
6031;SDS011;3044;43.232;27.972;2022-12-18T14:00:47;14.60;;;9.37;;
6031;SDS011;3044;43.232;27.972;2022-12-18T14:03:16;14.73;;;9.83;;
6031;SDS011;3044;43.232;27.972;2022-12-18T14:05:51;13.07;;;9.20;;
6031;SDS011;3044;43.232;27.972;2022-12-18T14:08:24;15.30;;;9.67;;
6031;SDS011;3044;43.232;27.972;2022-12-18T14:10:54;16.63;;;10.03;;
6031;SDS011;3044;43.232;27.972;2022-12-18T14:13:24;11.63;;;8.70;;
6031;SDS011;3044;43.232;27.972;2022-12-18T14:15:54;11.17;;;8.30;;
6031;SDS011;3044;43.232;27.972;2022-12-18T14:18:34;12.10;;;8.03;;
6031;SDS011;3044;43.232;27.972;2022-12-18T14:21:15;13.13;;;9.33;;
6031;SDS011;3044;43.232;27.972;2022-12-18T14:23:45;13.27;;;8.90;;
6031;SDS011;3044;43.232;27.972;2022-12-18T14:26:20;14.20;;;9.87;;
6031;SDS011;3044;43.232;27.972;2022-12-18T14:28:49;16.83;;;10.20;;
6031;SDS011;3044;43.232;27.972;2022-12-18T14:31:20;17.43;;;10.30;;
6031;SDS011;3044;43.232;27.972;2022-12-18T14:33:50;15.97;;;9.97;;
6031;SDS011;3044;43.232;27.972;2022-12-18T14:36:18;13.13;;;9.10;;
6031;SDS011;3044;43.232;27.972;2022-12-18T14:38:48;25.67;;;11.20;;
6031;SDS011;3044;43.232;27.972;2022-12-18T14:41:17;15.53;;;10.80;;
6031;SDS011;3044;43.232;27.972;2022-12-18T14:43:46;12.57;;;9.57;;
6031;SDS011;3044;43.232;27.972;2022-12-18T14:46:25;13.43;;;9.37;;
6031;SDS011;3044;43.232;27.972;2022-12-18T14:48:56;10.37;;;9.13;;
6031;SDS011;3044;43.232;27.972;2022-12-18T14:51:24;13.63;;;9.50;;
6031;SDS011;3044;43.232;27.972;2022-12-18T14:53:54;14.70;;;10.70;;
6031;SDS011;3044;43.232;27.972;2022-12-18T14:56:26;12.77;;;10.13;;
6031;SDS011;3044;43.232;27.972;2022-12-18T14:58:56;14.93;;;10.00;;
6031;SDS011;3044;43.232;27.972;2022-12-18T15:01:26;17.03;;;11.10;;
6031;SDS011;3044;43.232;27.972;2022-12-18T15:03:58;15.13;;;10.90;;
6031;SDS011;3044;43.232;27.972;2022-12-18T15:06:35;15.17;;;10.57;;
6031;SDS011;3044;43.232;27.972;2022-12-18T15:09:05;14.70;;;10.33;;
6031;SDS011;3044;43.232;27.972;2022-12-18T15:11:48;16.20;;;10.13;;
6031;SDS011;3044;43.232;27.972;2022-12-18T15:14:22;18.23;;;9.97;;
6031;SDS011;3044;43.232;27.972;2022-12-18T15:16:52;18.37;;;12.07;;
6031;SDS011;3044;43.232;27.972;2022-12-18T15:19:22;14.40;;;10.63;;
6031;SDS011;3044;43.232;27.972;2022-12-18T15:21:59;15.97;;;10.20;;